sensor_id;sensor_type;location;lat;lon;timestamp;pressure;altitude;pressure_sealevel;temperature;humidity
7441;BME280;29616;51.950;8.572;2023-05-23T00:00:17;99943.47;;;14.81;100.00
7441;BME280;29616;51.950;8.572;2023-05-23T00:02:47;99933.03;;;14.77;100.00
7441;BME280;29616;51.950;8.572;2023-05-23T00:05:17;99936.81;;;14.76;100.00
7441;BME280;29616;51.950;8.572;2023-05-23T00:07:46;99934.13;;;14.68;100.00
7441;BME280;29616;51.950;8.572;2023-05-23T00:10:17;99930.75;;;14.57;100.00
7441;BME280;29616;51.950;8.572;2023-05-23T00:12:47;99928.72;;;14.51;100.00
7441;BME280;29616;51.950;8.572;2023-05-23T00:15:17;99933.25;;;14.44;100.00
7441;BME280;29616;51.950;8.572;2023-05-23T00:17:45;99926.59;;;14.31;100.00
7441;BME280;29616;51.950;8.572;2023-05-23T00:20:15;99930.56;;;14.28;100.00
7441;BME280;29616;51.950;8.572;2023-05-23T00:22:44;99931.09;;;14.24;100.00
7441;BME280;29616;51.950;8.572;2023-05-23T00:25:16;99921.00;;;14.16;100.00
7441;BME280;29616;51.950;8.572;2023-05-23T00:27:48;99931.69;;;14.11;100.00
7441;BME280;29616;51.950;8.572;2023-05-23T00:30:19;99922.06;;;14.15;100.00
7441;BME280;29616;51.950;8.572;2023-05-23T00:32:47;99919.78;;;14.19;100.00
7441;BME280;29616;51.950;8.572;2023-05-23T00:35:19;99918.44;;;14.15;100.00
7441;BME280;29616;51.950;8.572;2023-05-23T00:37:48;99923.06;;;14.14;100.00
7441;BME280;29616;51.950;8.572;2023-05-23T00:40:21;99920.28;;;14.22;100.00
7441;BME280;29616;51.950;8.572;2023-05-23T00:42:52;99932.09;;;14.31;100.00
7441;BME280;29616;51.950;8.572;2023-05-23T00:45:21;99928.97;;;14.42;100.00
7441;BME280;29616;51.950;8.572;2023-05-23T00:47:52;99934.59;;;14.48;100.00
7441;BME280;29616;51.950;8.572;2023-05-23T00:50:21;99931.13;;;14.54;100.00
7441;BME280;29616;51.950;8.572;2023-05-23T00:52:51;99929.16;;;14.63;100.00
7441;BME280;29616;51.950;8.572;2023-05-23T00:55:21;99937.72;;;14.68;100.00
7441;BME280;29616;51.950;8.572;2023-05-23T00:57:53;99943.34;;;14.75;100.00
7441;BME280;29616;51.950;8.572;2023-05-23T01:00:24;99950.00;;;14.80;100.00
7441;BME280;29616;51.950;8.572;2023-05-23T01:02:52;99941.22;;;14.85;100.00
7441;BME280;29616;51.950;8.572;2023-05-23T01:05:22;99948.41;;;14.86;100.00
7441;BME280;29616;51.950;8.572;2023-05-23T01:07:53;99944.28;;;14.90;100.00
7441;BME280;29616;51.950;8.572;2023-05-23T01:10:26;99948.34;;;14.94;100.00
7441;BME280;29616;51.950;8.572;2023-05-23T01:13:16;99951.75;;;14.96;100.00
7441;BME280;29616;51.950;8.572;2023-05-23T01:15:57;99949.88;;;14.96;100.00
7441;BME280;29616;51.950;8.572;2023-05-23T01:18:35;99945.03;;;14.98;100.00
7441;BME280;29616;51.950;8.572;2023-05-23T01:21:13;99952.69;;;15.11;100.00
7441;BME280;29616;51.950;8.572;2023-05-23T01:24:20;99951.25;;;15.15;100.00
7441;BME280;29616;51.950;8.572;2023-05-23T01:27:10;99951.38;;;15.22;100.00
7441;BME280;29616;51.950;8.572;2023-05-23T01:29:53;99948.44;;;15.23;100.00
7441;BME280;29616;51.950;8.572;2023-05-23T01:32:26;99959.06;;;15.26;100.00
7441;BME280;29616;51.950;8.572;2023-05-23T01:34:58;99944.06;;;15.14;100.00
7441;BME280;29616;51.950;8.572;2023-05-23T01:37:29;99944.59;;;15.09;100.00
7441;BME280;29616;51.950;8.572;2023-05-23T01:39:58;99955.53;;;15.17;100.00
7441;BME280;29616;51.950;8.572;2023-05-23T01:42:27;99956.19;;;15.19;100.00
7441;BME280;29616;51.950;8.572;2023-05-23T01:44:59;99952.41;;;15.21;100.00
7441;BME280;29616;51.950;8.572;2023-05-23T01:47:30;99955.53;;;15.17;100.00
7441;BME280;29616;51.950;8.572;2023-05-23T01:50:01;99949.56;;;15.14;100.00
7441;BME280;29616;51.950;8.572;2023-05-23T01:52:30;99943.06;;;15.07;100.00
7441;BME280;29616;51.950;8.572;2023-05-23T01:54:59;99962.56;;;15.20;100.00
7441;BME280;29616;51.950;8.572;2023-05-23T01:57:30;99950.16;;;15.24;100.00
7441;BME280;29616;51.950;8.572;2023-05-23T02:00:04;99957.13;;;15.12;100.00
7441;BME280;29616;51.950;8.572;2023-05-23T02:02:44;99968.03;;;15.05;100.00
7441;BME280;29616;51.950;8.572;2023-05-23T02:05:15;99967.97;;;14.91;100.00
7441;BME280;29616;51.950;8.572;2023-05-23T02:07:46;99968.53;;;14.86;100.00
7441;BME280;29616;51.950;8.572;2023-05-23T02:10:17;99968.91;;;14.83;100.00
7441;BME280;29616;51.950;8.572;2023-05-23T02:12:48;99972.16;;;14.87;100.00
7441;BME280;29616;51.950;8.572;2023-05-23T02:15:18;99979.34;;;14.65;100.00
7441;BME280;29616;51.950;8.572;2023-05-23T02:17:48;99977.91;;;14.46;100.00
7441;BME280;29616;51.950;8.572;2023-05-23T02:20:17;99986.16;;;14.46;100.00
7441;BME280;29616;51.950;8.572;2023-05-23T02:22:48;99989.25;;;14.43;100.00
7441;BME280;29616;51.950;8.572;2023-05-23T02:25:18;99988.19;;;14.52;100.00
7441;BME280;29616;51.950;8.572;2023-05-23T02:27:46;99990.13;;;14.44;100.00
7441;BME280;29616;51.950;8.572;2023-05-23T02:30:15;99981.84;;;14.52;100.00
7441;BME280;29616;51.950;8.572;2023-05-23T02:32:46;99984.44;;;14.45;100.00
7441;BME280;29616;51.950;8.572;2023-05-23T02:35:16;99985.59;;;14.51;100.00
7441;BME280;29616;51.950;8.572;2023-05-23T02:37:44;99989.88;;;14.53;100.00
7441;BME280;29616;51.950;8.572;2023-05-23T02:40:14;99992.31;;;14.48;100.00
7441;BME280;29616;51.950;8.572;2023-05-23T02:42:44;99992.31;;;14.48;100.00
7441;BME280;29616;51.950;8.572;2023-05-23T02:45:13;99990.69;;;14.39;100.00
7441;BME280;29616;51.950;8.572;2023-05-23T02:47:43;99993.03;;;14.42;100.00
7441;BME280;29616;51.950;8.572;2023-05-23T02:50:14;99995.47;;;14.37;100.00
7441;BME280;29616;51.950;8.572;2023-05-23T02:52:44;99992.38;;;14.40;100.00
7441;BME280;29616;51.950;8.572;2023-05-23T02:55:12;99988.63;;;14.33;100.00
7441;BME280;29616;51.950;8.572;2023-05-23T02:57:45;99982.44;;;14.39;100.00
7441;BME280;29616;51.950;8.572;2023-05-23T03:00:14;100004.22;;;14.41;100.00
7441;BME280;29616;51.950;8.572;2023-05-23T03:02:49;100000.56;;;14.48;100.00
7441;BME280;29616;51.950;8.572;2023-05-23T03:05:19;99975.00;;;14.40;100.00
7441;BME280;29616;51.950;8.572;2023-05-23T03:07:49;100001.13;;;14.44;100.00
7441;BME280;29616;51.950;8.572;2023-05-23T03:10:19;99997.34;;;14.45;100.00
7441;BME280;29616;51.950;8.572;2023-05-23T03:12:49;100004.84;;;14.51;100.00
7441;BME280;29616;51.950;8.572;2023-05-23T03:15:19;99989.78;;;14.47;100.00
7441;BME280;29616;51.950;8.572;2023-05-23T03:17:48;99990.38;;;14.34;100.00
7441;BME280;29616;51.950;8.572;2023-05-23T03:20:18;99984.97;;;14.41;100.00
7441;BME280;29616;51.950;8.572;2023-05-23T03:22:49;99988.59;;;14.41;100.00
7441;BME280;29616;51.950;8.572;2023-05-23T03:25:17;99979.84;;;14.38;100.00
7441;BME280;29616;51.950;8.572;2023-05-23T03:27:49;99990.53;;;14.33;100.00
7441;BME280;29616;51.950;8.572;2023-05-23T03:30:19;99987.06;;;14.39;100.00
7441;BME280;29616;51.950;8.572;2023-05-23T03:32:49;99978.50;;;14.34;100.00
7441;BME280;29616;51.950;8.572;2023-05-23T03:35:21;99972.47;;;14.30;100.00
7441;BME280;29616;51.950;8.572;2023-05-23T03:37:51;99960.13;;;14.26;100.00
7441;BME280;29616;51.950;8.572;2023-05-23T03:40:21;99977.66;;;14.33;100.00
7441;BME280;29616;51.950;8.572;2023-05-23T03:43:01;99987.72;;;14.41;100.00
7441;BME280;29616;51.950;8.572;2023-05-23T03:45:35;99944.19;;;14.14;100.00
7441;BME280;29616;51.950;8.572;2023-05-23T03:48:10;99984.13;;;14.40;100.00
7441;BME280;29616;51.950;8.572;2023-05-23T03:50:42;99987.69;;;14.49;100.00
7441;BME280;29616;51.950;8.572;2023-05-23T03:53:12;99984.03;;;14.56;100.00
7441;BME280;29616;51.950;8.572;2023-05-23T03:55:43;99990.28;;;14.42;100.00
7441;BME280;29616;51.950;8.572;2023-05-23T03:58:12;99994.06;;;14.49;100.00
7441;BME280;29616;51.950;8.572;2023-05-23T04:00:43;99998.50;;;14.50;100.00
7441;BME280;29616;51.950;8.572;2023-05-23T04:03:15;99999.25;;;14.44;100.00
7441;BME280;29616;51.950;8.572;2023-05-23T04:05:46;99992.31;;;14.48;100.00
7441;BME280;29616;51.950;8.572;2023-05-23T04:08:16;99998.34;;;14.52;100.00
7441;BME280;29616;51.950;8.572;2023-05-23T04:10:50;100002.97;;;14.51;100.00
7441;BME280;29616;51.950;8.572;2023-05-23T04:13:22;99996.13;;;14.47;100.00
7441;BME280;29616;51.950;8.572;2023-05-23T04:15:52;100000.22;;;14.51;100.00
7441;BME280;29616;51.950;8.572;2023-05-23T04:18:24;100006.91;;;14.57;100.00
7441;BME280;29616;51.950;8.572;2023-05-23T04:20:54;100003.16;;;14.50;100.00
7441;BME280;29616;51.950;8.572;2023-05-23T04:23:23;100009.13;;;14.53;100.00
7441;BME280;29616;51.950;8.572;2023-05-23T04:25:54;100012.75;;;14.54;100.00
7441;BME280;29616;51.950;8.572;2023-05-23T04:28:28;100008.28;;;14.53;100.00
7441;BME280;29616;51.950;8.572;2023-05-23T04:30:57;100009.84;;;14.55;100.00
7441;BME280;29616;51.950;8.572;2023-05-23T04:33:29;99992.47;;;14.55;100.00
7441;BME280;29616;51.950;8.572;2023-05-23T04:35:59;100009.97;;;14.62;100.00
7441;BME280;29616;51.950;8.572;2023-05-23T04:38:30;100023.47;;;14.72;100.00
7441;BME280;29616;51.950;8.572;2023-05-23T04:41:00;100018.47;;;14.75;100.00
7441;BME280;29616;51.950;8.572;2023-05-23T04:43:41;100020.00;;;14.78;100.00
7441;BME280;29616;51.950;8.572;2023-05-23T04:46:31;100014.13;;;14.81;100.00
7441;BME280;29616;51.950;8.572;2023-05-23T04:49:29;100013.47;;;14.79;100.00
7441;BME280;29616;51.950;8.572;2023-05-23T04:52:02;100023.97;;;14.75;100.00
7441;BME280;29616;51.950;8.572;2023-05-23T04:54:32;100024.78;;;14.84;100.00
7441;BME280;29616;51.950;8.572;2023-05-23T04:57:04;100030.13;;;14.77;100.00
7441;BME280;29616;51.950;8.572;2023-05-23T04:59:34;100026.97;;;14.66;100.00
7441;BME280;29616;51.950;8.572;2023-05-23T05:02:04;100035.16;;;14.74;100.00
7441;BME280;29616;51.950;8.572;2023-05-23T05:04:37;100036.19;;;14.73;100.00
7441;BME280;29616;51.950;8.572;2023-05-23T05:07:08;100035.13;;;14.82;100.00
7441;BME280;29616;51.950;8.572;2023-05-23T05:09:38;100035.47;;;14.79;100.00
7441;BME280;29616;51.950;8.572;2023-05-23T05:12:10;100037.16;;;14.80;100.00
7441;BME280;29616;51.950;8.572;2023-05-23T05:14:40;100039.59;;;14.75;100.00
7441;BME280;29616;51.950;8.572;2023-05-23T05:17:09;100021.22;;;14.75;100.00
7441;BME280;29616;51.950;8.572;2023-05-23T05:19:50;100035.78;;;14.84;100.00
7441;BME280;29616;51.950;8.572;2023-05-23T05:22:21;100036.81;;;14.83;100.00
7441;BME280;29616;51.950;8.572;2023-05-23T05:24:50;100029.31;;;14.77;100.00
7441;BME280;29616;51.950;8.572;2023-05-23T05:27:19;100038.28;;;14.93;100.00
7441;BME280;29616;51.950;8.572;2023-05-23T05:29:47;100040.88;;;14.95;100.00
7441;BME280;29616;51.950;8.572;2023-05-23T05:32:17;100042.75;;;14.94;100.00
7441;BME280;29616;51.950;8.572;2023-05-23T05:34:47;100038.06;;;15.03;100.00
7441;BME280;29616;51.950;8.572;2023-05-23T05:37:19;100038.78;;;14.97;100.00
7441;BME280;29616;51.950;8.572;2023-05-23T05:39:49;100048.13;;;14.88;100.00
7441;BME280;29616;51.950;8.572;2023-05-23T05:42:20;100046.53;;;14.93;100.00
7441;BME280;29616;51.950;8.572;2023-05-23T05:44:50;100041.25;;;14.92;100.00
7441;BME280;29616;51.950;8.572;2023-05-23T05:47:19;100044.34;;;14.89;100.00
7441;BME280;29616;51.950;8.572;2023-05-23T05:49:48;100041.91;;;14.94;100.00
7441;BME280;29616;51.950;8.572;2023-05-23T05:52:21;100038.59;;;14.98;100.00
7441;BME280;29616;51.950;8.572;2023-05-23T05:54:49;100046.78;;;15.06;100.00
7441;BME280;29616;51.950;8.572;2023-05-23T05:57:18;100053.53;;;15.04;100.00
7441;BME280;29616;51.950;8.572;2023-05-23T05:59:49;100050.41;;;15.07;100.00
7441;BME280;29616;51.950;8.572;2023-05-23T06:02:20;100045.81;;;14.99;100.00
7441;BME280;29616;51.950;8.572;2023-05-23T06:04:49;100033.66;;;14.94;100.00
7441;BME280;29616;51.950;8.572;2023-05-23T06:07:18;100050.47;;;14.99;100.00
7441;BME280;29616;51.950;8.572;2023-05-23T06:09:49;100058.19;;;15.03;100.00
7441;BME280;29616;51.950;8.572;2023-05-23T06:12:19;100052.25;;;14.92;100.00
7441;BME280;29616;51.950;8.572;2023-05-23T06:14:49;100055.66;;;14.94;100.00
7441;BME280;29616;51.950;8.572;2023-05-23T06:17:17;100046.28;;;14.80;100.00
7441;BME280;29616;51.950;8.572;2023-05-23T06:19:46;100058.78;;;14.91;100.00
7441;BME280;29616;51.950;8.572;2023-05-23T06:22:17;100053.63;;;14.88;100.00
7441;BME280;29616;51.950;8.572;2023-05-23T06:24:46;100057.56;;;14.93;100.00
7441;BME280;29616;51.950;8.572;2023-05-23T06:27:19;100062.47;;;14.75;100.00
7441;BME280;29616;51.950;8.572;2023-05-23T06:29:50;100066.66;;;14.71;100.00
7441;BME280;29616;51.950;8.572;2023-05-23T06:32:21;100049.00;;;14.57;100.00
7441;BME280;29616;51.950;8.572;2023-05-23T06:34:51;100079.97;;;14.51;100.00
7441;BME280;29616;51.950;8.572;2023-05-23T06:37:21;100076.03;;;14.46;100.00
7441;BME280;29616;51.950;8.572;2023-05-23T06:39:49;100064.72;;;14.41;100.00
7441;BME280;29616;51.950;8.572;2023-05-23T06:42:20;100087.06;;;14.38;100.00
7441;BME280;29616;51.950;8.572;2023-05-23T06:45:04;100083.84;;;14.34;100.00
7441;BME280;29616;51.950;8.572;2023-05-23T06:47:33;100096.16;;;14.30;100.00
7441;BME280;29616;51.950;8.572;2023-05-23T06:50:04;100088.28;;;14.35;100.00
7441;BME280;29616;51.950;8.572;2023-05-23T06:52:33;100099.94;;;14.37;100.00
7441;BME280;29616;51.950;8.572;2023-05-23T06:55:04;100100.31;;;14.34;100.00
7441;BME280;29616;51.950;8.572;2023-05-23T06:57:36;100104.97;;;14.26;100.00
7441;BME280;29616;51.950;8.572;2023-05-23T07:00:06;100101.34;;;14.33;100.00
7441;BME280;29616;51.950;8.572;2023-05-23T07:02:43;100112.69;;;14.22;100.00
7441;BME280;29616;51.950;8.572;2023-05-23T07:05:18;100114.44;;;14.07;100.00
7441;BME280;29616;51.950;8.572;2023-05-23T07:07:50;100119.91;;;14.23;100.00
7441;BME280;29616;51.950;8.572;2023-05-23T07:10:20;100102.09;;;13.87;100.00
7441;BME280;29616;51.950;8.572;2023-05-23T07:12:53;100120.47;;;13.94;100.00
7441;BME280;29616;51.950;8.572;2023-05-23T07:15:22;100120.66;;;13.85;100.00
7441;BME280;29616;51.950;8.572;2023-05-23T07:18:02;100121.00;;;13.82;100.00
7441;BME280;29616;51.950;8.572;2023-05-23T07:20:34;100131.50;;;13.78;100.00
7441;BME280;29616;51.950;8.572;2023-05-23T07:23:11;100131.31;;;13.80;100.00
7441;BME280;29616;51.950;8.572;2023-05-23T07:25:41;100138.88;;;13.78;100.00
7441;BME280;29616;51.950;8.572;2023-05-23T07:28:40;100137.13;;;13.85;100.00
7441;BME280;29616;51.950;8.572;2023-05-23T07:31:09;100142.63;;;14.01;100.00
7441;BME280;29616;51.950;8.572;2023-05-23T07:33:42;100145.72;;;13.82;100.00
7441;BME280;29616;51.950;8.572;2023-05-23T07:36:15;100142.47;;;13.62;100.00
7441;BME280;29616;51.950;8.572;2023-05-23T07:38:45;100154.66;;;13.60;100.00
7441;BME280;29616;51.950;8.572;2023-05-23T07:41:14;100159.28;;;13.59;100.00
7441;BME280;29616;51.950;8.572;2023-05-23T07:43:44;100164.78;;;13.59;100.00
7441;BME280;29616;51.950;8.572;2023-05-23T07:46:13;100176.25;;;13.47;100.00
7441;BME280;29616;51.950;8.572;2023-05-23T07:48:43;100167.19;;;13.46;100.00
7441;BME280;29616;51.950;8.572;2023-05-23T07:51:12;100184.16;;;13.58;100.00
7441;BME280;29616;51.950;8.572;2023-05-23T07:53:44;100180.56;;;13.65;100.00
7441;BME280;29616;51.950;8.572;2023-05-23T07:56:13;100187.94;;;13.49;100.00
7441;BME280;29616;51.950;8.572;2023-05-23T07:58:46;100186.06;;;13.49;100.00
7441;BME280;29616;51.950;8.572;2023-05-23T08:01:17;100187.22;;;13.47;100.00
7441;BME280;29616;51.950;8.572;2023-05-23T08:04:02;100197.88;;;13.50;100.00
7441;BME280;29616;51.950;8.572;2023-05-23T08:06:39;100202.34;;;13.51;100.00
7441;BME280;29616;51.950;8.572;2023-05-23T08:09:34;100197.53;;;13.53;100.00
7441;BME280;29616;51.950;8.572;2023-05-23T08:12:05;100207.84;;;13.51;100.00
7441;BME280;29616;51.950;8.572;2023-05-23T08:14:36;100215.06;;;13.60;100.00
7441;BME280;29616;51.950;8.572;2023-05-23T08:17:28;100213.16;;;13.52;100.00
7441;BME280;29616;51.950;8.572;2023-05-23T08:20:00;100216.44;;;13.64;100.00
7441;BME280;29616;51.950;8.572;2023-05-23T08:22:31;100198.94;;;13.49;100.00
7441;BME280;29616;51.950;8.572;2023-05-23T08:25:03;100217.31;;;13.64;100.00
7441;BME280;29616;51.950;8.572;2023-05-23T08:27:35;100218.53;;;13.70;100.00
7441;BME280;29616;51.950;8.572;2023-05-23T08:30:17;100228.47;;;13.71;100.00
7441;BME280;29616;51.950;8.572;2023-05-23T08:32:51;100232.25;;;13.62;100.00
7441;BME280;29616;51.950;8.572;2023-05-23T08:35:21;100208.38;;;13.54;100.00
7441;BME280;29616;51.950;8.572;2023-05-23T08:37:50;100236.03;;;13.85;100.00
7441;BME280;29616;51.950;8.572;2023-05-23T08:40:21;100218.53;;;13.78;100.00
7441;BME280;29616;51.950;8.572;2023-05-23T08:42:59;100233.28;;;13.85;100.00
7441;BME280;29616;51.950;8.572;2023-05-23T08:45:31;100246.69;;;14.12;100.00
7441;BME280;29616;51.950;8.572;2023-05-23T08:48:07;100227.13;;;13.99;100.00
7441;BME280;29616;51.950;8.572;2023-05-23T08:50:46;100256.13;;;14.02;100.00
7441;BME280;29616;51.950;8.572;2023-05-23T08:53:20;100250.44;;;14.68;100.00
7441;BME280;29616;51.950;8.572;2023-05-23T08:55:58;100240.28;;;14.68;100.00
7441;BME280;29616;51.950;8.572;2023-05-23T08:58:40;100243.22;;;14.50;100.00
7441;BME280;29616;51.950;8.572;2023-05-23T09:01:12;100241.88;;;14.30;100.00
7441;BME280;29616;51.950;8.572;2023-05-23T09:03:44;100263.22;;;14.36;100.00
7441;BME280;29616;51.950;8.572;2023-05-23T09:06:20;100270.75;;;14.42;100.00
7441;BME280;29616;51.950;8.572;2023-05-23T09:08:49;100268.34;;;13.99;100.00
7441;BME280;29616;51.950;8.572;2023-05-23T09:11:22;100268.81;;;13.94;100.00
7441;BME280;29616;51.950;8.572;2023-05-23T09:13:52;100280.34;;;13.98;100.00
7441;BME280;29616;51.950;8.572;2023-05-23T09:16:31;100269.88;;;13.85;100.00
7441;BME280;29616;51.950;8.572;2023-05-23T09:19:10;100284.13;;;13.97;100.00
7441;BME280;29616;51.950;8.572;2023-05-23T09:21:49;100286.00;;;13.88;100.00
7441;BME280;29616;51.950;8.572;2023-05-23T09:24:33;100288.88;;;13.71;100.00
7441;BME280;29616;51.950;8.572;2023-05-23T09:27:05;100292.13;;;13.66;100.00
7441;BME280;29616;51.950;8.572;2023-05-23T09:29:36;100282.16;;;13.65;100.00
7441;BME280;29616;51.950;8.572;2023-05-23T09:32:16;100297.47;;;13.60;100.00
7441;BME280;29616;51.950;8.572;2023-05-23T09:34:55;100303.63;;;13.54;100.00
7441;BME280;29616;51.950;8.572;2023-05-23T09:37:29;100301.78;;;13.78;100.00
7441;BME280;29616;51.950;8.572;2023-05-23T09:40:06;100310.53;;;13.82;100.00
7441;BME280;29616;51.950;8.572;2023-05-23T09:42:41;100305.94;;;13.90;100.00
7441;BME280;29616;51.950;8.572;2023-05-23T09:45:12;100302.28;;;13.82;100.00
7441;BME280;29616;51.950;8.572;2023-05-23T09:47:50;100308.38;;;14.18;100.00
7441;BME280;29616;51.950;8.572;2023-05-23T09:50:21;100303.34;;;13.89;100.00
7441;BME280;29616;51.950;8.572;2023-05-23T09:52:52;100312.59;;;13.80;100.00
7441;BME280;29616;51.950;8.572;2023-05-23T09:55:20;100323.28;;;13.91;100.00
7441;BME280;29616;51.950;8.572;2023-05-23T09:57:53;100325.13;;;13.74;100.00
7441;BME280;29616;51.950;8.572;2023-05-23T10:00:24;100319.09;;;13.79;100.00
7441;BME280;29616;51.950;8.572;2023-05-23T10:03:04;100328.72;;;13.67;100.00
7441;BME280;29616;51.950;8.572;2023-05-23T10:05:43;100321.13;;;13.61;100.00
7441;BME280;29616;51.950;8.572;2023-05-23T10:08:18;100334.69;;;13.54;100.00
7441;BME280;29616;51.950;8.572;2023-05-23T10:14:18;100348.97;;;13.74;100.00
7441;BME280;29616;51.950;8.572;2023-05-23T10:17:00;100350.78;;;13.49;100.00
7441;BME280;29616;51.950;8.572;2023-05-23T10:19:37;100347.28;;;13.81;100.00
7441;BME280;29616;51.950;8.572;2023-05-23T10:22:13;100337.59;;;13.61;100.00
7441;BME280;29616;51.950;8.572;2023-05-23T10:24:44;100343.63;;;13.64;100.00
7441;BME280;29616;51.950;8.572;2023-05-23T10:27:15;100351.50;;;13.59;100.00
7441;BME280;29616;51.950;8.572;2023-05-23T10:29:45;100355.41;;;13.49;100.00
7441;BME280;29616;51.950;8.572;2023-05-23T10:32:16;100359.41;;;13.54;100.00
7441;BME280;29616;51.950;8.572;2023-05-23T10:34:55;100362.63;;;13.50;100.00
7441;BME280;29616;51.950;8.572;2023-05-23T10:37:34;100368.44;;;13.47;100.00
7441;BME280;29616;51.950;8.572;2023-05-23T10:40:20;100354.69;;;13.47;100.00
7441;BME280;29616;51.950;8.572;2023-05-23T10:43:01;100377.50;;;13.39;100.00
7441;BME280;29616;51.950;8.572;2023-05-23T10:45:39;100374.03;;;13.29;100.00
7441;BME280;29616;51.950;8.572;2023-05-23T10:48:21;100375.25;;;13.34;100.00
7441;BME280;29616;51.950;8.572;2023-05-23T10:51:04;100379.34;;;13.05;100.00
7441;BME280;29616;51.950;8.572;2023-05-23T10:53:39;100382.56;;;13.00;100.00
7441;BME280;29616;51.950;8.572;2023-05-23T10:56:09;100388.31;;;12.89;100.00
7441;BME280;29616;51.950;8.572;2023-05-23T10:58:39;100391.25;;;12.88;100.00
7441;BME280;29616;51.950;8.572;2023-05-23T11:01:14;100389.00;;;12.91;100.00
7441;BME280;29616;51.950;8.572;2023-05-23T11:03:52;100384.81;;;13.05;100.00
7441;BME280;29616;51.950;8.572;2023-05-23T11:06:32;100379.41;;;13.47;100.00
7441;BME280;29616;51.950;8.572;2023-05-23T11:09:05;100391.59;;;13.86;100.00
7441;BME280;29616;51.950;8.572;2023-05-23T11:12:00;100384.81;;;14.30;100.00
7441;BME280;29616;51.950;8.572;2023-05-23T11:14:51;100383.75;;;15.20;100.00
7441;BME280;29616;51.950;8.572;2023-05-23T11:17:31;100390.28;;;15.35;100.00
7441;BME280;29616;51.950;8.572;2023-05-23T11:20:04;100416.66;;;15.76;100.00
7441;BME280;29616;51.950;8.572;2023-05-23T11:22:37;100392.03;;;15.83;100.00
7441;BME280;29616;51.950;8.572;2023-05-23T11:25:07;100410.50;;;16.36;100.00
7441;BME280;29616;51.950;8.572;2023-05-23T11:27:39;100397.59;;;16.59;100.00
7441;BME280;29616;51.950;8.572;2023-05-23T11:30:11;100381.56;;;17.15;100.00
7441;BME280;29616;51.950;8.572;2023-05-23T11:32:49;100394.84;;;17.63;100.00
7441;BME280;29616;51.950;8.572;2023-05-23T11:35:20;100392.97;;;18.71;100.00
7441;BME280;29616;51.950;8.572;2023-05-23T11:37:51;100405.44;;;17.74;100.00
7441;BME280;29616;51.950;8.572;2023-05-23T11:40:27;100411.13;;;16.91;100.00
7441;BME280;29616;51.950;8.572;2023-05-23T11:42:58;100403.56;;;16.85;100.00
7441;BME280;29616;51.950;8.572;2023-05-23T11:45:29;100410.75;;;16.94;100.00
7441;BME280;29616;51.950;8.572;2023-05-23T11:48:03;100414.72;;;17.29;100.00
7441;BME280;29616;51.950;8.572;2023-05-23T11:50:32;100429.63;;;17.06;100.00
7441;BME280;29616;51.950;8.572;2023-05-23T11:53:03;100410.06;;;16.55;100.00
7441;BME280;29616;51.950;8.572;2023-05-23T11:55:34;100415.75;;;16.23;100.00
7441;BME280;29616;51.950;8.572;2023-05-23T11:58:03;100423.97;;;16.00;100.00
7441;BME280;29616;51.950;8.572;2023-05-23T12:00:34;100422.13;;;15.30;100.00
7441;BME280;29616;51.950;8.572;2023-05-23T12:03:12;100440.34;;;15.39;100.00
7441;BME280;29616;51.950;8.572;2023-05-23T12:05:42;100441.47;;;15.76;100.00
7441;BME280;29616;51.950;8.572;2023-05-23T12:08:14;100429.84;;;16.28;100.00
7441;BME280;29616;51.950;8.572;2023-05-23T12:10:51;100440.53;;;16.31;100.00
7441;BME280;29616;51.950;8.572;2023-05-23T12:13:24;100424.03;;;16.23;100.00
7441;BME280;29616;51.950;8.572;2023-05-23T12:15:54;100453.25;;;16.32;100.00
7441;BME280;29616;51.950;8.572;2023-05-23T12:18:28;100453.81;;;16.58;100.00
7441;BME280;29616;51.950;8.572;2023-05-23T12:21:01;100449.69;;;17.37;100.00
7441;BME280;29616;51.950;8.572;2023-05-23T12:23:36;100433.19;;;18.88;100.00
7441;BME280;29616;51.950;8.572;2023-05-23T12:26:06;100452.19;;;20.02;100.00
7441;BME280;29616;51.950;8.572;2023-05-23T12:28:38;100443.22;;;20.00;100.00
7441;BME280;29616;51.950;8.572;2023-05-23T12:31:11;100448.22;;;19.77;100.00
7441;BME280;29616;51.950;8.572;2023-05-23T12:33:43;100447.22;;;19.57;100.00
7441;BME280;29616;51.950;8.572;2023-05-23T12:36:14;100439.34;;;18.12;100.00
7441;BME280;29616;51.950;8.572;2023-05-23T12:38:45;100443.78;;;18.63;100.00
7441;BME280;29616;51.950;8.572;2023-05-23T12:41:18;100452.66;;;19.44;100.00
7441;BME280;29616;51.950;8.572;2023-05-23T12:43:51;100460.91;;;19.65;100.00
7441;BME280;29616;51.950;8.572;2023-05-23T12:46:23;100456.50;;;18.79;100.00
7441;BME280;29616;51.950;8.572;2023-05-23T12:48:54;100451.16;;;17.91;100.00
7441;BME280;29616;51.950;8.572;2023-05-23T12:51:24;100461.09;;;19.35;100.00
7441;BME280;29616;51.950;8.572;2023-05-23T12:53:54;100461.34;;;20.30;100.00
7441;BME280;29616;51.950;8.572;2023-05-23T12:56:25;100466.34;;;20.20;100.00
7441;BME280;29616;51.950;8.572;2023-05-23T12:58:56;100468.66;;;19.76;100.00
7441;BME280;29616;51.950;8.572;2023-05-23T13:01:24;100450.81;;;20.93;100.00
7441;BME280;29616;51.950;8.572;2023-05-23T13:03:54;100466.03;;;20.36;100.00
7441;BME280;29616;51.950;8.572;2023-05-23T13:06:22;100466.75;;;20.11;100.00
7441;BME280;29616;51.950;8.572;2023-05-23T13:08:53;100454.56;;;19.22;100.00
7441;BME280;29616;51.950;8.572;2023-05-23T13:11:22;100467.69;;;18.50;100.00
7441;BME280;29616;51.950;8.572;2023-05-23T13:13:53;100465.53;;;18.31;100.00
7441;BME280;29616;51.950;8.572;2023-05-23T13:16:23;100470.06;;;17.88;100.00
7441;BME280;29616;51.950;8.572;2023-05-23T13:18:54;100444.41;;;17.79;100.00
7441;BME280;29616;51.950;8.572;2023-05-23T13:21:24;100470.81;;;17.82;100.00
7441;BME280;29616;51.950;8.572;2023-05-23T13:23:57;100461.84;;;18.45;100.00